sensor_id;sensor_type;location;lat;lon;timestamp;temperature;humidity
52615;DHT22;38508;53.158;6.614;2023-03-09T00:01:34;4.80;99.90
52615;DHT22;38508;53.158;6.614;2023-03-09T00:04:00;4.80;99.90
52615;DHT22;38508;53.158;6.614;2023-03-09T00:06:26;4.90;99.90
52615;DHT22;38508;53.158;6.614;2023-03-09T00:08:52;4.90;99.90
52615;DHT22;38508;53.158;6.614;2023-03-09T00:11:18;4.90;99.90
52615;DHT22;38508;53.158;6.614;2023-03-09T00:13:45;5.00;99.90
52615;DHT22;38508;53.158;6.614;2023-03-09T00:16:20;5.00;99.90
52615;DHT22;38508;53.158;6.614;2023-03-09T00:18:47;5.00;99.90
52615;DHT22;38508;53.158;6.614;2023-03-09T00:21:13;4.90;99.90
52615;DHT22;38508;53.158;6.614;2023-03-09T00:23:51;4.90;99.90
52615;DHT22;38508;53.158;6.614;2023-03-09T00:26:16;4.80;99.90
52615;DHT22;38508;53.158;6.614;2023-03-09T00:28:42;4.80;99.90
52615;DHT22;38508;53.158;6.614;2023-03-09T00:31:08;4.70;99.90
52615;DHT22;38508;53.158;6.614;2023-03-09T00:33:34;4.80;99.90
52615;DHT22;38508;53.158;6.614;2023-03-09T00:36:00;4.90;99.90
52615;DHT22;38508;53.158;6.614;2023-03-09T00:38:26;5.00;99.90
52615;DHT22;38508;53.158;6.614;2023-03-09T00:40:52;5.00;99.90
52615;DHT22;38508;53.158;6.614;2023-03-09T00:43:17;5.00;99.90
52615;DHT22;38508;53.158;6.614;2023-03-09T00:45:43;4.80;99.90
52615;DHT22;38508;53.158;6.614;2023-03-09T00:48:08;4.80;99.90
52615;DHT22;38508;53.158;6.614;2023-03-09T00:50:34;4.90;99.90
52615;DHT22;38508;53.158;6.614;2023-03-09T00:53:00;4.90;99.90
52615;DHT22;38508;53.158;6.614;2023-03-09T00:55:26;4.90;99.90
52615;DHT22;38508;53.158;6.614;2023-03-09T00:57:51;4.80;99.90
52615;DHT22;38508;53.158;6.614;2023-03-09T01:00:17;4.80;99.90
52615;DHT22;38508;53.158;6.614;2023-03-09T01:02:43;4.90;99.90
52615;DHT22;38508;53.158;6.614;2023-03-09T01:05:09;4.80;99.90
52615;DHT22;38508;53.158;6.614;2023-03-09T01:07:35;4.70;99.90
52615;DHT22;38508;53.158;6.614;2023-03-09T01:10:02;4.60;99.90
52615;DHT22;38508;53.158;6.614;2023-03-09T01:12:28;4.60;99.90
52615;DHT22;38508;53.158;6.614;2023-03-09T01:14:55;4.60;99.90
52615;DHT22;38508;53.158;6.614;2023-03-09T01:17:21;4.50;99.90
52615;DHT22;38508;53.158;6.614;2023-03-09T01:19:47;4.40;99.90
52615;DHT22;38508;53.158;6.614;2023-03-09T01:22:12;4.40;99.90
52615;DHT22;38508;53.158;6.614;2023-03-09T01:24:38;4.40;99.90
52615;DHT22;38508;53.158;6.614;2023-03-09T01:27:04;4.40;99.90
52615;DHT22;38508;53.158;6.614;2023-03-09T01:29:30;4.50;99.90
52615;DHT22;38508;53.158;6.614;2023-03-09T01:31:56;4.60;99.90
52615;DHT22;38508;53.158;6.614;2023-03-09T01:34:21;4.50;99.90
52615;DHT22;38508;53.158;6.614;2023-03-09T01:36:47;4.60;99.90
52615;DHT22;38508;53.158;6.614;2023-03-09T01:39:13;4.60;99.90
52615;DHT22;38508;53.158;6.614;2023-03-09T01:41:39;4.60;99.90
52615;DHT22;38508;53.158;6.614;2023-03-09T01:44:04;4.60;99.90
52615;DHT22;38508;53.158;6.614;2023-03-09T01:46:38;4.60;99.90
52615;DHT22;38508;53.158;6.614;2023-03-09T01:52:12;4.50;99.90
52615;DHT22;38508;53.158;6.614;2023-03-09T01:57:24;4.50;99.90
52615;DHT22;38508;53.158;6.614;2023-03-09T01:59:53;4.50;99.90
52615;DHT22;38508;53.158;6.614;2023-03-09T02:02:21;4.50;99.90
52615;DHT22;38508;53.158;6.614;2023-03-09T02:04:53;4.40;99.90
52615;DHT22;38508;53.158;6.614;2023-03-09T02:07:21;4.40;99.90
52615;DHT22;38508;53.158;6.614;2023-03-09T02:09:54;4.20;99.90
52615;DHT22;38508;53.158;6.614;2023-03-09T02:12:23;4.10;99.90
52615;DHT22;38508;53.158;6.614;2023-03-09T02:14:50;4.00;99.90
52615;DHT22;38508;53.158;6.614;2023-03-09T02:17:16;4.00;99.90
52615;DHT22;38508;53.158;6.614;2023-03-09T02:22:37;4.20;99.90
52615;DHT22;38508;53.158;6.614;2023-03-09T02:27:35;4.30;99.90
52615;DHT22;38508;53.158;6.614;2023-03-09T02:30:02;4.30;99.90
52615;DHT22;38508;53.158;6.614;2023-03-09T02:32:31;4.20;99.90
52615;DHT22;38508;53.158;6.614;2023-03-09T02:34:57;4.10;99.90
52615;DHT22;38508;53.158;6.614;2023-03-09T02:37:30;4.10;99.90
52615;DHT22;38508;53.158;6.614;2023-03-09T02:40:09;4.20;99.90
52615;DHT22;38508;53.158;6.614;2023-03-09T02:42:37;4.20;99.90
52615;DHT22;38508;53.158;6.614;2023-03-09T02:45:04;4.30;99.90
52615;DHT22;38508;53.158;6.614;2023-03-09T02:47:30;4.40;99.90
52615;DHT22;38508;53.158;6.614;2023-03-09T02:49:56;4.50;99.90
52615;DHT22;38508;53.158;6.614;2023-03-09T02:52:21;4.40;99.90
52615;DHT22;38508;53.158;6.614;2023-03-09T02:54:47;4.40;99.90
52615;DHT22;38508;53.158;6.614;2023-03-09T02:57:13;4.40;99.90
52615;DHT22;38508;53.158;6.614;2023-03-09T02:59:40;4.40;99.90
52615;DHT22;38508;53.158;6.614;2023-03-09T03:02:05;4.40;99.90
52615;DHT22;38508;53.158;6.614;2023-03-09T03:04:31;4.40;99.90
52615;DHT22;38508;53.158;6.614;2023-03-09T03:06:57;4.40;99.90
52615;DHT22;38508;53.158;6.614;2023-03-09T03:09:23;4.40;99.90
52615;DHT22;38508;53.158;6.614;2023-03-09T03:11:49;4.30;99.90
52615;DHT22;38508;53.158;6.614;2023-03-09T03:14:14;4.30;99.90
52615;DHT22;38508;53.158;6.614;2023-03-09T03:16:40;4.30;99.90
52615;DHT22;38508;53.158;6.614;2023-03-09T03:19:05;4.20;99.90
52615;DHT22;38508;53.158;6.614;2023-03-09T03:21:31;4.20;99.90
52615;DHT22;38508;53.158;6.614;2023-03-09T03:23:57;4.30;99.90
52615;DHT22;38508;53.158;6.614;2023-03-09T03:26:23;4.30;99.90
52615;DHT22;38508;53.158;6.614;2023-03-09T03:28:48;4.30;99.90
52615;DHT22;38508;53.158;6.614;2023-03-09T03:31:14;4.30;99.90
52615;DHT22;38508;53.158;6.614;2023-03-09T03:33:40;4.40;99.90
52615;DHT22;38508;53.158;6.614;2023-03-09T03:36:06;4.40;99.90
52615;DHT22;38508;53.158;6.614;2023-03-09T03:38:31;4.40;99.90
52615;DHT22;38508;53.158;6.614;2023-03-09T03:40:57;4.50;99.90
52615;DHT22;38508;53.158;6.614;2023-03-09T03:43:23;4.30;99.90
52615;DHT22;38508;53.158;6.614;2023-03-09T03:45:48;4.30;99.90
52615;DHT22;38508;53.158;6.614;2023-03-09T03:48:14;4.40;99.90
52615;DHT22;38508;53.158;6.614;2023-03-09T03:50:40;4.30;99.90
52615;DHT22;38508;53.158;6.614;2023-03-09T03:53:06;4.30;99.90
52615;DHT22;38508;53.158;6.614;2023-03-09T03:55:31;4.30;99.90
52615;DHT22;38508;53.158;6.614;2023-03-09T03:57:57;4.30;99.90
52615;DHT22;38508;53.158;6.614;2023-03-09T04:00:23;4.30;99.90
52615;DHT22;38508;53.158;6.614;2023-03-09T04:02:49;4.40;99.90
52615;DHT22;38508;53.158;6.614;2023-03-09T04:05:15;4.40;99.90
52615;DHT22;38508;53.158;6.614;2023-03-09T04:07:41;4.40;99.90
52615;DHT22;38508;53.158;6.614;2023-03-09T04:10:07;4.50;99.90
52615;DHT22;38508;53.158;6.614;2023-03-09T04:12:34;4.50;99.90
52615;DHT22;38508;53.158;6.614;2023-03-09T04:14:59;4.40;99.90
52615;DHT22;38508;53.158;6.614;2023-03-09T04:17:25;4.30;99.90
52615;DHT22;38508;53.158;6.614;2023-03-09T04:19:51;4.40;99.90
52615;DHT22;38508;53.158;6.614;2023-03-09T04:22:16;4.40;99.90
52615;DHT22;38508;53.158;6.614;2023-03-09T04:24:42;4.40;99.90
52615;DHT22;38508;53.158;6.614;2023-03-09T04:27:08;4.40;99.90
52615;DHT22;38508;53.158;6.614;2023-03-09T04:29:33;4.40;99.90
52615;DHT22;38508;53.158;6.614;2023-03-09T04:31:59;4.50;99.90
52615;DHT22;38508;53.158;6.614;2023-03-09T04:34:25;4.30;99.90
52615;DHT22;38508;53.158;6.614;2023-03-09T04:36:50;4.30;99.90
52615;DHT22;38508;53.158;6.614;2023-03-09T04:39:16;4.40;99.90
52615;DHT22;38508;53.158;6.614;2023-03-09T04:41:42;4.50;99.90
52615;DHT22;38508;53.158;6.614;2023-03-09T04:44:08;4.50;99.90
52615;DHT22;38508;53.158;6.614;2023-03-09T04:46:33;4.50;99.90
52615;DHT22;38508;53.158;6.614;2023-03-09T04:48:59;4.40;99.90
52615;DHT22;38508;53.158;6.614;2023-03-09T04:51:24;4.30;99.90
52615;DHT22;38508;53.158;6.614;2023-03-09T04:53:50;4.20;99.90
52615;DHT22;38508;53.158;6.614;2023-03-09T04:56:16;4.20;99.90
52615;DHT22;38508;53.158;6.614;2023-03-09T04:58:42;4.20;99.90
52615;DHT22;38508;53.158;6.614;2023-03-09T05:01:07;4.10;99.90
52615;DHT22;38508;53.158;6.614;2023-03-09T05:03:33;4.10;99.90
52615;DHT22;38508;53.158;6.614;2023-03-09T05:05:59;4.10;99.90
52615;DHT22;38508;53.158;6.614;2023-03-09T05:08:24;4.20;99.90
52615;DHT22;38508;53.158;6.614;2023-03-09T05:10:50;4.20;99.90
52615;DHT22;38508;53.158;6.614;2023-03-09T05:13:16;4.30;99.90
52615;DHT22;38508;53.158;6.614;2023-03-09T05:15:41;4.20;99.90
52615;DHT22;38508;53.158;6.614;2023-03-09T05:18:08;4.30;99.90
52615;DHT22;38508;53.158;6.614;2023-03-09T05:20:34;4.20;99.90
52615;DHT22;38508;53.158;6.614;2023-03-09T05:23:03;4.20;99.90
52615;DHT22;38508;53.158;6.614;2023-03-09T05:25:29;4.20;99.90
52615;DHT22;38508;53.158;6.614;2023-03-09T05:27:55;4.30;99.90
52615;DHT22;38508;53.158;6.614;2023-03-09T05:30:20;4.30;99.90
52615;DHT22;38508;53.158;6.614;2023-03-09T05:32:47;4.30;99.90
52615;DHT22;38508;53.158;6.614;2023-03-09T05:35:18;4.30;99.90
52615;DHT22;38508;53.158;6.614;2023-03-09T05:37:45;4.30;99.90
52615;DHT22;38508;53.158;6.614;2023-03-09T05:40:12;4.30;99.90
52615;DHT22;38508;53.158;6.614;2023-03-09T05:42:38;4.30;99.90
52615;DHT22;38508;53.158;6.614;2023-03-09T05:45:04;4.20;99.90
52615;DHT22;38508;53.158;6.614;2023-03-09T05:47:31;4.20;99.90
52615;DHT22;38508;53.158;6.614;2023-03-09T05:49:57;4.20;99.90
52615;DHT22;38508;53.158;6.614;2023-03-09T05:52:23;4.10;99.90
52615;DHT22;38508;53.158;6.614;2023-03-09T05:54:48;4.10;99.90
52615;DHT22;38508;53.158;6.614;2023-03-09T05:57:14;4.20;99.90
52615;DHT22;38508;53.158;6.614;2023-03-09T05:59:40;4.30;99.90
52615;DHT22;38508;53.158;6.614;2023-03-09T06:02:06;4.30;99.90
52615;DHT22;38508;53.158;6.614;2023-03-09T06:04:32;4.20;99.90
52615;DHT22;38508;53.158;6.614;2023-03-09T06:06:58;4.20;99.90
52615;DHT22;38508;53.158;6.614;2023-03-09T06:09:23;4.20;99.90
52615;DHT22;38508;53.158;6.614;2023-03-09T06:11:50;4.30;99.90
52615;DHT22;38508;53.158;6.614;2023-03-09T06:14:16;4.30;99.90
52615;DHT22;38508;53.158;6.614;2023-03-09T06:16:42;4.30;99.90
52615;DHT22;38508;53.158;6.614;2023-03-09T06:19:08;4.40;99.90
52615;DHT22;38508;53.158;6.614;2023-03-09T06:21:34;4.40;99.90
52615;DHT22;38508;53.158;6.614;2023-03-09T06:24:00;4.50;99.90
52615;DHT22;38508;53.158;6.614;2023-03-09T06:26:26;4.50;99.90
52615;DHT22;38508;53.158;6.614;2023-03-09T06:28:51;4.60;99.90
52615;DHT22;38508;53.158;6.614;2023-03-09T06:31:18;4.60;99.90
52615;DHT22;38508;53.158;6.614;2023-03-09T06:33:45;4.60;99.90
52615;DHT22;38508;53.158;6.614;2023-03-09T06:36:13;4.50;99.90
52615;DHT22;38508;53.158;6.614;2023-03-09T06:38:39;4.40;99.90
52615;DHT22;38508;53.158;6.614;2023-03-09T06:41:05;4.50;99.90
52615;DHT22;38508;53.158;6.614;2023-03-09T06:43:31;4.40;99.90
52615;DHT22;38508;53.158;6.614;2023-03-09T06:45:57;4.40;99.90
52615;DHT22;38508;53.158;6.614;2023-03-09T06:48:23;4.30;99.90
52615;DHT22;38508;53.158;6.614;2023-03-09T06:50:48;4.30;99.90
52615;DHT22;38508;53.158;6.614;2023-03-09T06:53:15;4.30;99.90
52615;DHT22;38508;53.158;6.614;2023-03-09T06:55:40;4.20;99.90
52615;DHT22;38508;53.158;6.614;2023-03-09T06:58:06;4.30;99.90
52615;DHT22;38508;53.158;6.614;2023-03-09T07:00:32;4.20;99.90
52615;DHT22;38508;53.158;6.614;2023-03-09T07:03:04;4.20;99.90
52615;DHT22;38508;53.158;6.614;2023-03-09T07:05:30;4.20;99.90
52615;DHT22;38508;53.158;6.614;2023-03-09T07:07:55;4.20;99.90
52615;DHT22;38508;53.158;6.614;2023-03-09T07:10:21;4.20;99.90
52615;DHT22;38508;53.158;6.614;2023-03-09T07:12:48;4.00;99.90
52615;DHT22;38508;53.158;6.614;2023-03-09T07:15:14;4.00;99.90
52615;DHT22;38508;53.158;6.614;2023-03-09T07:17:41;3.90;99.90
52615;DHT22;38508;53.158;6.614;2023-03-09T07:20:09;3.80;99.90
52615;DHT22;38508;53.158;6.614;2023-03-09T07:22:35;3.80;99.90
52615;DHT22;38508;53.158;6.614;2023-03-09T07:25:01;3.80;99.90
52615;DHT22;38508;53.158;6.614;2023-03-09T07:27:27;3.90;99.90
52615;DHT22;38508;53.158;6.614;2023-03-09T07:29:53;4.00;99.90
52615;DHT22;38508;53.158;6.614;2023-03-09T07:32:18;4.10;99.90
52615;DHT22;38508;53.158;6.614;2023-03-09T07:34:44;4.10;99.90
52615;DHT22;38508;53.158;6.614;2023-03-09T07:37:10;4.10;99.90
52615;DHT22;38508;53.158;6.614;2023-03-09T07:39:36;4.20;99.90
52615;DHT22;38508;53.158;6.614;2023-03-09T07:42:01;4.30;99.90
52615;DHT22;38508;53.158;6.614;2023-03-09T07:44:28;4.30;99.90
52615;DHT22;38508;53.158;6.614;2023-03-09T07:46:53;4.30;99.90
52615;DHT22;38508;53.158;6.614;2023-03-09T07:49:19;4.30;99.90
52615;DHT22;38508;53.158;6.614;2023-03-09T07:51:45;4.40;99.90
52615;DHT22;38508;53.158;6.614;2023-03-09T07:54:11;4.30;99.90
52615;DHT22;38508;53.158;6.614;2023-03-09T07:56:37;4.30;99.90
52615;DHT22;38508;53.158;6.614;2023-03-09T07:59:02;4.10;99.90
52615;DHT22;38508;53.158;6.614;2023-03-09T08:01:29;4.30;99.90
52615;DHT22;38508;53.158;6.614;2023-03-09T08:03:55;4.50;99.90
52615;DHT22;38508;53.158;6.614;2023-03-09T08:06:21;4.50;99.90
52615;DHT22;38508;53.158;6.614;2023-03-09T08:08:47;4.40;99.90
52615;DHT22;38508;53.158;6.614;2023-03-09T08:11:13;4.60;99.90
52615;DHT22;38508;53.158;6.614;2023-03-09T08:13:39;4.70;99.90
52615;DHT22;38508;53.158;6.614;2023-03-09T08:16:07;4.70;99.90
52615;DHT22;38508;53.158;6.614;2023-03-09T08:18:33;4.80;99.90
52615;DHT22;38508;53.158;6.614;2023-03-09T08:21:08;4.80;99.90
52615;DHT22;38508;53.158;6.614;2023-03-09T08:23:35;4.90;99.90
52615;DHT22;38508;53.158;6.614;2023-03-09T08:26:03;4.90;99.90
52615;DHT22;38508;53.158;6.614;2023-03-09T08:28:30;4.80;99.90
52615;DHT22;38508;53.158;6.614;2023-03-09T08:30:56;4.80;99.90
52615;DHT22;38508;53.158;6.614;2023-03-09T08:33:21;5.00;99.90
52615;DHT22;38508;53.158;6.614;2023-03-09T08:35:47;5.00;99.90
52615;DHT22;38508;53.158;6.614;2023-03-09T08:38:13;5.00;99.90
52615;DHT22;38508;53.158;6.614;2023-03-09T08:40:38;5.00;99.90
52615;DHT22;38508;53.158;6.614;2023-03-09T08:43:05;5.10;99.90
52615;DHT22;38508;53.158;6.614;2023-03-09T08:45:31;5.20;99.90
52615;DHT22;38508;53.158;6.614;2023-03-09T08:47:57;5.00;99.90
52615;DHT22;38508;53.158;6.614;2023-03-09T08:50:23;5.10;99.90
52615;DHT22;38508;53.158;6.614;2023-03-09T08:52:48;5.20;99.90
52615;DHT22;38508;53.158;6.614;2023-03-09T08:55:14;5.20;99.90
52615;DHT22;38508;53.158;6.614;2023-03-09T08:57:41;5.30;99.90
52615;DHT22;38508;53.158;6.614;2023-03-09T09:00:07;5.40;99.90
52615;DHT22;38508;53.158;6.614;2023-03-09T09:02:35;5.40;99.90
52615;DHT22;38508;53.158;6.614;2023-03-09T09:05:01;5.60;99.90
52615;DHT22;38508;53.158;6.614;2023-03-09T09:07:28;5.60;99.90
52615;DHT22;38508;53.158;6.614;2023-03-09T09:09:55;5.60;99.90
52615;DHT22;38508;53.158;6.614;2023-03-09T09:12:21;5.70;99.90
52615;DHT22;38508;53.158;6.614;2023-03-09T09:14:47;5.60;99.90
52615;DHT22;38508;53.158;6.614;2023-03-09T09:17:13;5.60;99.90
52615;DHT22;38508;53.158;6.614;2023-03-09T09:19:39;5.60;99.90
52615;DHT22;38508;53.158;6.614;2023-03-09T09:22:06;5.90;99.90
52615;DHT22;38508;53.158;6.614;2023-03-09T09:24:33;5.90;99.90
52615;DHT22;38508;53.158;6.614;2023-03-09T09:27:06;6.00;99.90
52615;DHT22;38508;53.158;6.614;2023-03-09T09:29:35;6.10;99.90
52615;DHT22;38508;53.158;6.614;2023-03-09T09:32:03;6.20;99.90
52615;DHT22;38508;53.158;6.614;2023-03-09T09:34:31;6.20;99.90
52615;DHT22;38508;53.158;6.614;2023-03-09T09:37:01;6.20;99.90
52615;DHT22;38508;53.158;6.614;2023-03-09T09:39:28;6.30;99.90
52615;DHT22;38508;53.158;6.614;2023-03-09T09:41:56;6.10;99.90
52615;DHT22;38508;53.158;6.614;2023-03-09T09:44:26;6.20;99.90
52615;DHT22;38508;53.158;6.614;2023-03-09T09:46:54;6.30;99.90
52615;DHT22;38508;53.158;6.614;2023-03-09T09:49:24;6.30;99.90
52615;DHT22;38508;53.158;6.614;2023-03-09T09:58:34;6.20;99.90
52615;DHT22;38508;53.158;6.614;2023-03-09T10:01:06;6.30;99.90
52615;DHT22;38508;53.158;6.614;2023-03-09T10:03:42;6.30;99.90
52615;DHT22;38508;53.158;6.614;2023-03-09T10:14:20;6.00;99.90
52615;DHT22;38508;53.158;6.614;2023-03-09T10:16:56;5.80;99.90
52615;DHT22;38508;53.158;6.614;2023-03-09T10:19:28;5.90;99.90
52615;DHT22;38508;53.158;6.614;2023-03-09T10:24:27;5.80;99.90
52615;DHT22;38508;53.158;6.614;2023-03-09T10:32:37;6.10;99.90
52615;DHT22;38508;53.158;6.614;2023-03-09T10:35:40;6.30;99.90
52615;DHT22;38508;53.158;6.614;2023-03-09T10:38:18;6.40;99.90
52615;DHT22;38508;53.158;6.614;2023-03-09T10:40:52;6.60;99.90
52615;DHT22;38508;53.158;6.614;2023-03-09T10:43:30;6.70;99.90
52615;DHT22;38508;53.158;6.614;2023-03-09T10:46:20;6.60;99.90
52615;DHT22;38508;53.158;6.614;2023-03-09T10:48:48;6.60;99.90
52615;DHT22;38508;53.158;6.614;2023-03-09T10:51:31;6.50;99.90
52615;DHT22;38508;53.158;6.614;2023-03-09T10:54:23;6.60;99.90
52615;DHT22;38508;53.158;6.614;2023-03-09T10:56:49;6.70;99.90
52615;DHT22;38508;53.158;6.614;2023-03-09T10:59:22;6.70;99.90
52615;DHT22;38508;53.158;6.614;2023-03-09T11:01:50;6.80;99.90
52615;DHT22;38508;53.158;6.614;2023-03-09T11:04:35;6.80;99.90
52615;DHT22;38508;53.158;6.614;2023-03-09T11:20:34;6.50;99.90
52615;DHT22;38508;53.158;6.614;2023-03-09T11:26:05;6.70;99.90
52615;DHT22;38508;53.158;6.614;2023-03-09T11:31:23;6.20;99.90
52615;DHT22;38508;53.158;6.614;2023-03-09T11:33:51;6.30;99.90
52615;DHT22;38508;53.158;6.614;2023-03-09T11:36:26;6.40;99.90
52615;DHT22;38508;53.158;6.614;2023-03-09T11:38:54;6.40;99.90
52615;DHT22;38508;53.158;6.614;2023-03-09T11:41:35;6.70;99.90
52615;DHT22;38508;53.158;6.614;2023-03-09T11:44:07;6.90;99.90
52615;DHT22;38508;53.158;6.614;2023-03-09T11:46:34;7.10;99.90
52615;DHT22;38508;53.158;6.614;2023-03-09T11:49:17;7.00;99.90
52615;DHT22;38508;53.158;6.614;2023-03-09T11:51:52;7.20;99.90
52615;DHT22;38508;53.158;6.614;2023-03-09T11:54:31;7.00;99.90
52615;DHT22;38508;53.158;6.614;2023-03-09T11:57:06;7.00;99.90
52615;DHT22;38508;53.158;6.614;2023-03-09T11:59:39;7.10;99.90
52615;DHT22;38508;53.158;6.614;2023-03-09T12:04:53;7.30;99.90
52615;DHT22;38508;53.158;6.614;2023-03-09T12:07:39;7.40;99.90
52615;DHT22;38508;53.158;6.614;2023-03-09T12:10:16;7.60;99.90
52615;DHT22;38508;53.158;6.614;2023-03-09T12:17:55;7.40;99.90
52615;DHT22;38508;53.158;6.614;2023-03-09T12:22:55;7.20;99.90
52615;DHT22;38508;53.158;6.614;2023-03-09T12:25:22;7.20;99.90
52615;DHT22;38508;53.158;6.614;2023-03-09T12:27:53;7.00;99.90
52615;DHT22;38508;53.158;6.614;2023-03-09T12:30:27;7.10;99.90
52615;DHT22;38508;53.158;6.614;2023-03-09T12:32:58;7.00;99.90
52615;DHT22;38508;53.158;6.614;2023-03-09T12:42:55;7.10;99.90
52615;DHT22;38508;53.158;6.614;2023-03-09T13:01:01;7.30;99.90
52615;DHT22;38508;53.158;6.614;2023-03-09T13:04:14;7.30;99.90
52615;DHT22;38508;53.158;6.614;2023-03-09T13:06:58;7.20;99.90
52615;DHT22;38508;53.158;6.614;2023-03-09T13:09:42;7.10;99.90
52615;DHT22;38508;53.158;6.614;2023-03-09T13:12:29;7.10;99.90
52615;DHT22;38508;53.158;6.614;2023-03-09T13:15:32;7.20;99.90
52615;DHT22;38508;53.158;6.614;2023-03-09T13:18:11;7.20;99.90
52615;DHT22;38508;53.158;6.614;2023-03-09T13:20:39;7.10;99.90
52615;DHT22;38508;53.158;6.614;2023-03-09T13:23:19;6.90;99.90
52615;DHT22;38508;53.158;6.614;2023-03-09T13:25:53;6.60;99.90
52615;DHT22;38508;53.158;6.614;2023-03-09T13:28:29;6.50;99.90
52615;DHT22;38508;53.158;6.614;2023-03-09T13:31:00;6.50;99.90
52615;DHT22;38508;53.158;6.614;2023-03-09T13:33:30;6.40;99.90
52615;DHT22;38508;53.158;6.614;2023-03-09T13:36:16;6.50;99.90
52615;DHT22;38508;53.158;6.614;2023-03-09T13:38:47;6.60;99.90
52615;DHT22;38508;53.158;6.614;2023-03-09T13:41:22;6.50;99.90
52615;DHT22;38508;53.158;6.614;2023-03-09T13:43:51;6.50;99.90
52615;DHT22;38508;53.158;6.614;2023-03-09T13:46:22;6.40;99.90
52615;DHT22;38508;53.158;6.614;2023-03-09T13:48:50;6.40;99.90
52615;DHT22;38508;53.158;6.614;2023-03-09T13:53:54;6.50;99.90
52615;DHT22;38508;53.158;6.614;2023-03-09T13:56:20;6.40;99.90
52615;DHT22;38508;53.158;6.614;2023-03-09T13:58:46;6.30;99.90
52615;DHT22;38508;53.158;6.614;2023-03-09T14:01:23;6.40;99.90
52615;DHT22;38508;53.158;6.614;2023-03-09T14:03:52;6.50;99.90
52615;DHT22;38508;53.158;6.614;2023-03-09T14:06:43;6.50;99.90
52615;DHT22;38508;53.158;6.614;2023-03-09T14:09:34;6.50;99.90
52615;DHT22;38508;53.158;6.614;2023-03-09T14:12:02;6.70;99.90
52615;DHT22;38508;53.158;6.614;2023-03-09T14:14:28;6.70;99.90
52615;DHT22;38508;53.158;6.614;2023-03-09T14:16:54;6.70;99.90
52615;DHT22;38508;53.158;6.614;2023-03-09T14:19:21;6.90;99.90
52615;DHT22;38508;53.158;6.614;2023-03-09T14:21:51;6.90;99.90
52615;DHT22;38508;53.158;6.614;2023-03-09T14:26:43;6.70;99.90
52615;DHT22;38508;53.158;6.614;2023-03-09T14:29:29;6.60;99.90
52615;DHT22;38508;53.158;6.614;2023-03-09T14:32:17;6.60;99.90
52615;DHT22;38508;53.158;6.614;2023-03-09T14:34:43;6.60;99.90
52615;DHT22;38508;53.158;6.614;2023-03-09T14:37:27;6.70;99.90
52615;DHT22;38508;53.158;6.614;2023-03-09T14:39:55;6.70;99.90
52615;DHT22;38508;53.158;6.614;2023-03-09T14:42:32;6.10;99.90
52615;DHT22;38508;53.158;6.614;2023-03-09T14:47:30;6.10;99.90
52615;DHT22;38508;53.158;6.614;2023-03-09T14:49:56;6.20;99.90
52615;DHT22;38508;53.158;6.614;2023-03-09T14:52:23;6.10;99.90
52615;DHT22;38508;53.158;6.614;2023-03-09T14:54:52;6.30;99.90
52615;DHT22;38508;53.158;6.614;2023-03-09T14:57:18;6.30;99.90
52615;DHT22;38508;53.158;6.614;2023-03-09T14:59:44;6.20;99.90
52615;DHT22;38508;53.158;6.614;2023-03-09T15:02:12;6.00;99.90
52615;DHT22;38508;53.158;6.614;2023-03-09T15:04:40;6.00;99.90
52615;DHT22;38508;53.158;6.614;2023-03-09T15:07:07;6.10;99.90
52615;DHT22;38508;53.158;6.614;2023-03-09T15:09:34;5.90;99.90
52615;DHT22;38508;53.158;6.614;2023-03-09T15:12:03;5.80;99.90
52615;DHT22;38508;53.158;6.614;2023-03-09T15:14:33;5.90;99.90
52615;DHT22;38508;53.158;6.614;2023-03-09T15:16:59;6.00;99.90
52615;DHT22;38508;53.158;6.614;2023-03-09T15:19:25;6.10;99.90
52615;DHT22;38508;53.158;6.614;2023-03-09T15:21:53;6.20;99.90
52615;DHT22;38508;53.158;6.614;2023-03-09T15:24:23;6.20;99.90
52615;DHT22;38508;53.158;6.614;2023-03-09T15:26:49;6.20;99.90
52615;DHT22;38508;53.158;6.614;2023-03-09T15:29:15;6.20;99.90
52615;DHT22;38508;53.158;6.614;2023-03-09T15:31:41;6.50;99.90
52615;DHT22;38508;53.158;6.614;2023-03-09T15:34:07;6.50;99.90
52615;DHT22;38508;53.158;6.614;2023-03-09T15:36:33;6.40;99.90
52615;DHT22;38508;53.158;6.614;2023-03-09T15:38:59;6.50;99.90
52615;DHT22;38508;53.158;6.614;2023-03-09T15:41:25;6.30;99.90
52615;DHT22;38508;53.158;6.614;2023-03-09T15:43:52;6.40;99.90
52615;DHT22;38508;53.158;6.614;2023-03-09T15:46:18;6.10;99.90
52615;DHT22;38508;53.158;6.614;2023-03-09T15:48:43;6.10;99.90
52615;DHT22;38508;53.158;6.614;2023-03-09T15:51:10;5.90;99.90
52615;DHT22;38508;53.158;6.614;2023-03-09T15:53:35;6.00;99.90
52615;DHT22;38508;53.158;6.614;2023-03-09T15:56:06;6.00;99.90
52615;DHT22;38508;53.158;6.614;2023-03-09T15:58:33;6.10;99.90
52615;DHT22;38508;53.158;6.614;2023-03-09T16:01:16;6.10;99.90
52615;DHT22;38508;53.158;6.614;2023-03-09T16:03:50;6.30;99.90
52615;DHT22;38508;53.158;6.614;2023-03-09T16:06:17;6.50;99.90
52615;DHT22;38508;53.158;6.614;2023-03-09T16:08:44;6.50;99.90
52615;DHT22;38508;53.158;6.614;2023-03-09T16:11:10;6.30;99.90
52615;DHT22;38508;53.158;6.614;2023-03-09T16:13:36;6.00;99.90
52615;DHT22;38508;53.158;6.614;2023-03-09T16:16:02;6.00;99.90
52615;DHT22;38508;53.158;6.614;2023-03-09T16:18:28;5.90;99.90
52615;DHT22;38508;53.158;6.614;2023-03-09T16:20:53;5.90;99.90
52615;DHT22;38508;53.158;6.614;2023-03-09T16:23:19;5.90;99.90
52615;DHT22;38508;53.158;6.614;2023-03-09T16:25:52;6.00;99.90
52615;DHT22;38508;53.158;6.614;2023-03-09T16:28:19;5.90;99.90
52615;DHT22;38508;53.158;6.614;2023-03-09T16:30:45;5.90;99.90
52615;DHT22;38508;53.158;6.614;2023-03-09T16:33:11;5.90;99.90
52615;DHT22;38508;53.158;6.614;2023-03-09T16:35:36;5.80;99.90
52615;DHT22;38508;53.158;6.614;2023-03-09T16:38:02;5.80;99.90
52615;DHT22;38508;53.158;6.614;2023-03-09T16:40:29;5.80;99.90
52615;DHT22;38508;53.158;6.614;2023-03-09T16:42:54;5.70;99.90
52615;DHT22;38508;53.158;6.614;2023-03-09T16:45:20;5.70;99.90
52615;DHT22;38508;53.158;6.614;2023-03-09T16:47:46;5.60;99.90
52615;DHT22;38508;53.158;6.614;2023-03-09T16:50:17;5.40;99.90
52615;DHT22;38508;53.158;6.614;2023-03-09T16:52:43;5.30;99.90
52615;DHT22;38508;53.158;6.614;2023-03-09T16:55:17;5.20;99.90
52615;DHT22;38508;53.158;6.614;2023-03-09T16:57:44;5.30;99.90
52615;DHT22;38508;53.158;6.614;2023-03-09T17:00:15;5.40;99.90
52615;DHT22;38508;53.158;6.614;2023-03-09T17:02:41;5.40;99.90
52615;DHT22;38508;53.158;6.614;2023-03-09T17:05:09;5.50;99.90
52615;DHT22;38508;53.158;6.614;2023-03-09T17:07:35;5.50;99.90
52615;DHT22;38508;53.158;6.614;2023-03-09T17:10:03;5.50;99.90
52615;DHT22;38508;53.158;6.614;2023-03-09T17:12:29;5.60;99.90
52615;DHT22;38508;53.158;6.614;2023-03-09T17:14:55;5.40;99.90
52615;DHT22;38508;53.158;6.614;2023-03-09T17:17:22;5.40;99.90
52615;DHT22;38508;53.158;6.614;2023-03-09T17:19:47;5.50;99.90
52615;DHT22;38508;53.158;6.614;2023-03-09T17:22:13;5.50;99.90
52615;DHT22;38508;53.158;6.614;2023-03-09T17:24:39;5.60;99.90
52615;DHT22;38508;53.158;6.614;2023-03-09T17:27:05;5.50;99.90